createdAt,value
2017-11-06T00:00:27.979Z,45.07
2017-11-06T00:02:56.324Z,42.60
2017-11-06T00:05:24.571Z,47.93
2017-11-06T00:07:52.817Z,33.83
2017-11-06T00:10:21.165Z,50.03
2017-11-06T00:12:50.189Z,46.60
2017-11-06T00:15:18.432Z,37.47
2017-11-06T00:17:47.517Z,49.43
2017-11-06T00:20:16.588Z,50.60
2017-11-06T00:22:44.884Z,35.60
2017-11-06T00:25:13.363Z,29.50
2017-11-06T00:27:41.669Z,38.17
2017-11-06T00:30:09.932Z,47.77
2017-11-06T00:32:39.106Z,37.43
2017-11-06T00:35:07.348Z,43.73
2017-11-06T00:37:35.600Z,47.07
2017-11-06T00:40:04.022Z,50.60
2017-11-06T00:42:32.289Z,31.50
2017-11-06T00:45:00.613Z,47.30
2017-11-06T00:47:28.942Z,53.27
2017-11-06T00:49:57.269Z,45.03
2017-11-06T00:52:26.340Z,39.23
2017-11-06T00:54:55.115Z,35.70
2017-11-06T00:57:23.388Z,47.87
2017-11-06T00:59:51.649Z,29.63
2017-11-06T01:02:20.196Z,31.10
2017-11-06T01:04:48.489Z,36.90
2017-11-06T01:07:16.784Z,43.33
2017-11-06T01:09:45.402Z,39.53
2017-11-06T01:12:13.710Z,43.90
2017-11-06T01:14:42.282Z,37.53
2017-11-06T01:17:11.381Z,30.27
2017-11-06T01:19:39.674Z,34.03
2017-11-06T01:22:07.928Z,38.50
2017-11-06T01:24:37.026Z,40.77
2017-11-06T01:27:05.352Z,46.90
2017-11-06T01:29:33.632Z,50.67
2017-11-06T01:32:02.503Z,47.97
2017-11-06T01:34:30.753Z,27.10
2017-11-06T01:36:59.038Z,43.50
2017-11-06T01:39:27.317Z,53.27
2017-11-06T01:41:55.590Z,57.07
2017-11-06T01:44:23.908Z,51.73
2017-11-06T01:46:52.312Z,38.63
2017-11-06T01:49:21.341Z,44.57
2017-11-06T01:51:49.667Z,27.50
2017-11-06T01:54:17.987Z,29.67
2017-11-06T01:56:46.290Z,35.80
2017-11-06T01:59:14.624Z,27.03
2017-11-06T02:01:42.895Z,33.20
2017-11-06T02:04:11.888Z,36.40
2017-11-06T02:06:41.036Z,29.57
2017-11-06T02:09:09.322Z,45.83
2017-11-06T02:11:37.594Z,42.43
2017-11-06T02:14:05.941Z,44.00
2017-11-06T02:16:34.195Z,37.30
2017-11-06T02:19:02.484Z,28.23
2017-11-06T02:21:30.859Z,27.50
2017-11-06T02:23:59.109Z,27.53
2017-11-06T02:26:28.140Z,28.13
2017-11-06T02:28:56.466Z,26.60
2017-11-06T02:31:25.586Z,27.70
2017-11-06T02:33:54.708Z,23.97
2017-11-06T02:36:23.037Z,26.30
2017-11-06T02:38:51.404Z,22.17
2017-11-06T02:41:19.711Z,21.57
2017-11-06T02:43:48.783Z,21.20
2017-11-06T02:46:17.819Z,19.87
2017-11-06T02:48:46.098Z,22.67
2017-11-06T02:51:14.468Z,21.10
2017-11-06T02:53:42.739Z,17.10
2017-11-06T02:56:10.975Z,16.47
2017-11-06T02:58:40.082Z,15.20
2017-11-06T03:01:09.146Z,14.93
2017-11-06T03:03:37.412Z,13.67
2017-11-06T03:06:05.772Z,15.37
2017-11-06T03:08:34.025Z,13.10
2017-11-06T03:11:03.059Z,11.40
2017-11-06T03:13:31.388Z,16.50
2017-11-06T03:15:59.657Z,12.10
2017-11-06T03:18:28.690Z,11.20
2017-11-06T03:20:57.032Z,12.40
2017-11-06T03:23:26.093Z,12.63
2017-11-06T03:25:54.424Z,13.23
2017-11-06T03:28:22.666Z,12.20
2017-11-06T03:30:50.935Z,13.53
2017-11-06T03:33:19.255Z,11.30
2017-11-06T03:35:47.630Z,10.57
2017-11-06T03:38:15.879Z,9.83
2017-11-06T03:40:44.143Z,9.07
2017-11-06T03:43:13.246Z,12.17
2017-11-06T03:45:41.477Z,9.43
2017-11-06T03:48:09.721Z,8.73
2017-11-06T03:50:38.047Z,11.40
2017-11-06T03:53:06.324Z,10.73
2017-11-06T03:55:34.629Z,9.47
2017-11-06T03:58:03.730Z,9.37
2017-11-06T04:00:31.985Z,9.90
2017-11-06T04:03:00.296Z,6.47
2017-11-06T04:05:28.584Z,7.43
2017-11-06T04:07:56.860Z,6.80
2017-11-06T04:10:25.094Z,8.33
2017-11-06T04:12:53.416Z,8.83
2017-11-06T04:15:22.488Z,7.07
2017-11-06T04:17:50.747Z,5.53
2017-11-06T04:20:19.822Z,7.50
2017-11-06T04:22:48.066Z,5.03
2017-11-06T04:25:16.382Z,6.77
2017-11-06T04:27:44.641Z,7.13
2017-11-06T04:30:12.937Z,6.97
2017-11-06T04:32:41.278Z,8.10
2017-11-06T04:35:09.567Z,9.30
2017-11-06T04:37:37.804Z,7.80
2017-11-06T04:40:06.540Z,7.93
2017-11-06T04:42:34.798Z,7.60
2017-11-06T04:45:03.020Z,8.63
2017-11-06T04:47:32.148Z,8.43
2017-11-06T04:50:00.445Z,9.80
2017-11-06T04:52:28.707Z,6.50
2017-11-06T04:54:57.017Z,7.47
2017-11-06T04:57:25.263Z,6.60
2017-11-06T04:59:53.583Z,8.87
2017-11-06T05:02:21.816Z,8.30
2017-11-06T05:04:50.097Z,7.30
2017-11-06T05:07:18.468Z,10.13
2017-11-06T05:09:46.798Z,8.17
2017-11-06T05:12:15.886Z,8.20
2017-11-06T05:14:44.237Z,6.80
2017-11-06T05:17:12.495Z,8.30
2017-11-06T05:19:40.820Z,8.47
2017-11-06T05:22:09.890Z,9.37
2017-11-06T05:24:38.186Z,10.23
2017-11-06T05:27:07.217Z,8.50
2017-11-06T05:29:35.521Z,11.40
2017-11-06T05:32:03.797Z,6.50
2017-11-06T05:34:32.221Z,8.13
2017-11-06T05:37:01.301Z,8.60
2017-11-06T05:39:29.554Z,10.00
2017-11-06T05:41:58.631Z,7.13
2017-11-06T05:44:26.968Z,8.57
2017-11-06T05:46:55.990Z,8.13
2017-11-06T05:49:24.257Z,8.67
2017-11-06T05:51:52.594Z,11.30
2017-11-06T05:54:21.605Z,9.07
2017-11-06T05:56:49.891Z,9.67
2017-11-06T05:59:18.200Z,10.73
2017-11-06T06:01:46.879Z,6.60
2017-11-06T06:04:15.161Z,8.20
2017-11-06T06:06:43.435Z,7.20
2017-11-06T06:09:11.733Z,8.33
2017-11-06T06:11:39.993Z,7.13
2017-11-06T06:14:08.301Z,14.37
2017-11-06T06:16:36.669Z,8.57
2017-11-06T06:19:04.942Z,9.43
2017-11-06T06:21:33.200Z,9.97
2017-11-06T06:24:01.500Z,10.43
2017-11-06T06:26:30.563Z,10.53
2017-11-06T06:28:58.806Z,10.87
2017-11-06T06:31:27.131Z,10.13
2017-11-06T06:33:55.427Z,11.43
2017-11-06T06:36:23.667Z,9.50
2017-11-06T06:38:52.086Z,10.00
2017-11-06T06:41:20.316Z,9.70
2017-11-06T06:43:48.560Z,9.60
2017-11-06T06:46:17.628Z,12.87
2017-11-06T06:48:45.869Z,10.80
2017-11-06T06:51:14.167Z,11.70
2017-11-06T06:53:42.528Z,7.90
2017-11-06T06:56:10.777Z,11.67
2017-11-06T06:58:39.026Z,9.67
2017-11-06T07:01:08.073Z,12.73
2017-11-06T07:03:36.329Z,21.67
2017-11-06T07:06:04.581Z,15.77
2017-11-06T07:08:32.924Z,15.47
2017-11-06T07:11:01.174Z,9.10
2017-11-06T07:13:29.431Z,13.67
2017-11-06T07:15:57.751Z,11.37
2017-11-06T07:18:25.999Z,11.00
2017-11-06T07:20:54.254Z,11.87
2017-11-06T07:23:22.565Z,12.33
2017-11-06T07:25:50.869Z,10.60
2017-11-06T07:28:19.101Z,12.90
2017-11-06T07:30:47.451Z,15.47
2017-11-06T07:33:15.696Z,14.70
2017-11-06T07:35:43.965Z,11.87
2017-11-06T07:38:13.060Z,9.20
2017-11-06T07:40:42.082Z,9.73
2017-11-06T07:43:10.337Z,12.83
2017-11-06T07:45:38.650Z,9.27
2017-11-06T07:48:06.923Z,9.33
2017-11-06T07:50:35.177Z,12.77
2017-11-06T07:53:03.497Z,7.00
2017-11-06T07:55:31.749Z,14.53
2017-11-06T07:58:00.010Z,9.73
2017-11-06T08:00:28.370Z,10.17
2017-11-06T08:02:56.674Z,10.17
2017-11-06T08:05:24.917Z,10.70
2017-11-06T08:07:53.984Z,7.87
2017-11-06T08:10:22.234Z,11.77
2017-11-06T08:12:50.467Z,7.70
2017-11-06T08:15:19.542Z,7.07
2017-11-06T08:17:47.800Z,8.07
2017-11-06T08:20:16.063Z,7.23
2017-11-06T08:22:44.369Z,7.33
2017-11-06T08:25:12.676Z,6.17
2017-11-06T08:27:41.690Z,10.90
2017-11-06T08:30:09.963Z,7.77
2017-11-06T08:32:38.330Z,6.37
2017-11-06T08:35:06.554Z,10.20
2017-11-06T08:37:34.891Z,11.10
2017-11-06T08:40:04.017Z,7.43
2017-11-06T08:42:32.393Z,12.20
2017-11-06T08:45:00.640Z,8.63
2017-11-06T08:47:28.915Z,8.20
2017-11-06T08:49:57.216Z,7.60
2017-11-06T08:52:25.564Z,8.50
2017-11-06T08:54:53.819Z,7.40
2017-11-06T08:57:22.136Z,7.70
2017-11-06T08:59:50.385Z,11.47
2017-11-06T09:02:18.630Z,7.43
2017-11-06T09:04:46.900Z,10.90
2017-11-06T09:07:15.170Z,10.37
2017-11-06T09:09:43.433Z,9.87
2017-11-06T09:12:12.151Z,15.43
2017-11-06T09:14:41.163Z,9.80
2017-11-06T09:17:09.423Z,9.30
2017-11-06T09:19:38.537Z,9.97
2017-11-06T09:22:06.807Z,27.30
2017-11-06T09:24:35.061Z,11.40
2017-11-06T09:27:03.399Z,9.80
2017-11-06T09:29:31.705Z,8.50
2017-11-06T09:31:59.952Z,11.60
2017-11-06T09:34:28.270Z,15.10
2017-11-06T09:36:57.266Z,8.47
2017-11-06T09:39:26.263Z,11.07
2017-11-06T09:41:55.300Z,7.03
2017-11-06T09:44:23.554Z,8.33
2017-11-06T09:46:51.877Z,11.47
2017-11-06T09:49:20.173Z,9.07
2017-11-06T09:51:48.421Z,11.47
2017-11-06T09:54:16.761Z,9.97
2017-11-06T09:56:44.995Z,10.23
2017-11-06T09:59:13.309Z,19.27
2017-11-06T10:01:41.574Z,11.70
2017-11-06T10:04:09.860Z,24.00
2017-11-06T10:06:38.167Z,11.20
2017-11-06T10:09:06.443Z,7.77
2017-11-06T10:11:34.706Z,21.57
2017-11-06T10:14:03.030Z,8.47
2017-11-06T10:16:32.033Z,13.07
2017-11-06T10:19:01.021Z,16.03
2017-11-06T10:21:29.320Z,10.90
2017-11-06T10:23:57.616Z,18.40
2017-11-06T10:26:25.890Z,26.83
2017-11-06T10:28:54.623Z,16.47
2017-11-06T10:31:22.879Z,16.80
2017-11-06T10:33:51.442Z,15.57
2017-11-06T10:36:20.229Z,10.57
2017-11-06T10:38:48.478Z,10.90
2017-11-06T10:41:16.726Z,9.43
2017-11-06T10:43:45.009Z,15.30
2017-11-06T10:46:14.018Z,7.50
2017-11-06T10:48:42.302Z,8.07
2017-11-06T10:51:10.564Z,5.43
2017-11-06T10:53:39.562Z,5.27
2017-11-06T10:56:08.233Z,14.80
2017-11-06T10:58:39.799Z,6.10
2017-11-06T11:01:10.538Z,9.80
2017-11-06T11:03:38.812Z,14.43
2017-11-06T11:06:07.051Z,6.23
2017-11-06T11:08:35.375Z,8.20
2017-11-06T11:11:03.642Z,82.57
2017-11-06T11:13:33.435Z,40.33
2017-11-06T11:16:03.686Z,10.07
2017-11-06T11:18:31.936Z,11.80
2017-11-06T11:21:00.981Z,16.60
2017-11-06T11:23:29.297Z,8.33
2017-11-06T11:25:58.451Z,16.50
2017-11-06T11:28:26.743Z,11.90
2017-11-06T11:30:55.043Z,20.43
2017-11-06T11:33:23.354Z,7.20
2017-11-06T11:35:51.583Z,9.00
2017-11-06T11:38:19.842Z,10.20
2017-11-06T11:40:48.144Z,18.80
2017-11-06T11:43:16.403Z,7.23
2017-11-06T11:45:44.684Z,18.53
2017-11-06T11:48:12.976Z,12.27
2017-11-06T11:50:42.048Z,11.57
2017-11-06T11:53:10.804Z,8.00
2017-11-06T11:55:39.181Z,12.57
2017-11-06T11:58:07.429Z,20.70
2017-11-06T12:00:36.509Z,12.70
2017-11-06T12:03:04.851Z,11.80
2017-11-06T12:05:33.130Z,10.43
2017-11-06T12:08:01.411Z,20.50
2017-11-06T12:10:29.686Z,9.73
2017-11-06T12:12:58.373Z,10.23
2017-11-06T12:15:26.613Z,13.00
2017-11-06T12:17:54.842Z,8.20
2017-11-06T12:20:23.132Z,26.00
2017-11-06T12:22:52.139Z,14.83
2017-11-06T12:25:20.824Z,8.03
2017-11-06T12:27:49.144Z,8.43
2017-11-06T12:30:17.451Z,13.17
2017-11-06T12:32:46.203Z,9.40
2017-11-06T12:35:14.483Z,11.80
2017-11-06T12:37:46.123Z,11.63
2017-11-06T12:40:14.459Z,13.73
2017-11-06T12:42:43.881Z,19.93
2017-11-06T12:45:12.129Z,24.33
2017-11-06T12:47:40.389Z,10.23
2017-11-06T12:50:09.081Z,10.93
2017-11-06T12:52:38.106Z,16.23
2017-11-06T12:55:06.337Z,10.63
2017-11-06T12:57:34.690Z,13.70
2017-11-06T13:00:02.941Z,10.90
2017-11-06T13:02:31.207Z,10.03
2017-11-06T13:04:59.532Z,9.23
2017-11-06T13:07:27.806Z,8.87
2017-11-06T13:09:56.850Z,8.37
2017-11-06T13:12:25.153Z,11.27
2017-11-06T13:14:53.418Z,7.90
2017-11-06T13:17:22.453Z,8.90
2017-11-06T13:19:50.769Z,9.10
2017-11-06T13:22:19.008Z,11.93
2017-11-06T13:24:47.243Z,7.40
2017-11-06T13:27:15.568Z,8.80
2017-11-06T13:29:43.810Z,8.73
2017-11-06T13:32:12.069Z,8.37
2017-11-06T13:34:43.195Z,9.90
2017-11-06T13:40:03.912Z,8.30
2017-11-06T13:42:37.864Z,12.20
2017-11-06T13:48:03.296Z,10.47
2017-11-06T13:50:36.337Z,11.67
2017-11-06T13:53:04.756Z,9.73
2017-11-06T13:55:33.089Z,9.60
2017-11-06T13:58:01.388Z,8.80
2017-11-06T14:00:31.909Z,33.37
2017-11-06T14:03:00.310Z,13.37
2017-11-06T14:05:31.475Z,9.80
2017-11-06T14:08:01.085Z,11.10
2017-11-06T14:10:30.079Z,12.03
2017-11-06T14:12:59.454Z,10.13
2017-11-06T14:15:33.541Z,11.27
2017-11-06T14:18:01.877Z,7.60
2017-11-06T14:20:30.180Z,7.07
2017-11-06T14:23:01.325Z,9.50
2017-11-06T14:25:29.690Z,6.90
2017-11-06T14:28:03.455Z,9.23
2017-11-06T14:30:34.533Z,7.23
2017-11-06T14:33:03.646Z,9.60
2017-11-06T14:35:31.976Z,10.80
2017-11-06T14:38:00.564Z,7.37
2017-11-06T14:40:29.698Z,9.73
2017-11-06T14:42:58.093Z,8.50
2017-11-06T14:45:26.833Z,5.97
2017-11-06T14:47:55.439Z,8.67
2017-11-06T14:50:23.900Z,6.17
2017-11-06T14:52:53.569Z,9.97
2017-11-06T14:55:21.869Z,6.40
2017-11-06T14:57:50.911Z,8.97
2017-11-06T15:00:19.495Z,10.63
2017-11-06T15:02:50.176Z,9.20
2017-11-06T15:05:21.601Z,9.83
2017-11-06T15:07:51.032Z,9.73
2017-11-06T15:10:21.430Z,10.00
2017-11-06T15:12:50.093Z,9.50
2017-11-06T15:15:19.215Z,9.57
2017-11-06T15:17:47.661Z,8.43
2017-11-06T15:20:16.097Z,7.60
2017-11-06T15:22:45.127Z,8.30
2017-11-06T15:25:13.577Z,5.83
2017-11-06T15:27:43.385Z,10.07
2017-11-06T15:30:11.758Z,9.80
2017-11-06T15:32:40.121Z,12.67
2017-11-06T15:35:08.932Z,14.87
2017-11-06T15:37:37.390Z,26.00
2017-11-06T15:40:05.780Z,72.27
2017-11-06T15:42:35.503Z,22.90
2017-11-06T15:45:03.823Z,17.37
2017-11-06T15:47:32.392Z,42.10
2017-11-06T15:50:00.758Z,69.30
2017-11-06T15:52:32.167Z,58.70
2017-11-06T15:55:00.847Z,42.17
2017-11-06T15:57:29.292Z,16.57
2017-11-06T15:59:57.841Z,14.07
2017-11-06T16:02:26.454Z,17.00
2017-11-06T16:04:54.966Z,14.17
2017-11-06T16:07:23.333Z,17.70
2017-11-06T16:09:51.761Z,38.60
2017-11-06T16:12:20.830Z,28.87
2017-11-06T16:14:49.376Z,48.57
2017-11-06T16:17:17.621Z,43.50
2017-11-06T16:19:45.955Z,45.17
2017-11-06T16:22:14.352Z,29.07
2017-11-06T16:24:42.691Z,21.77
2017-11-06T16:27:10.953Z,23.03
2017-11-06T16:29:39.666Z,21.83
2017-11-06T16:32:08.003Z,31.53
2017-11-06T16:34:37.050Z,27.33
2017-11-06T16:37:05.764Z,20.27
2017-11-06T16:39:34.013Z,38.23
2017-11-06T16:42:02.433Z,37.93
2017-11-06T16:44:32.830Z,35.80
2017-11-06T16:47:01.327Z,47.03
2017-11-06T16:49:31.680Z,29.53
2017-11-06T16:52:00.175Z,24.43
2017-11-06T16:54:28.776Z,41.60
2017-11-06T16:56:58.988Z,37.47
2017-11-06T16:59:27.319Z,31.73
2017-11-06T17:01:55.609Z,34.63
2017-11-06T17:04:24.951Z,47.70
2017-11-06T17:06:53.251Z,48.33
2017-11-06T17:09:21.572Z,53.97
2017-11-06T17:11:50.086Z,46.03
2017-11-06T17:14:19.821Z,37.20
2017-11-06T17:16:48.079Z,25.03
2017-11-06T17:19:16.384Z,28.43
2017-11-06T17:21:45.474Z,36.03
2017-11-06T17:24:13.774Z,43.20
2017-11-06T17:26:42.880Z,39.40
2017-11-06T17:29:11.202Z,38.90
2017-11-06T17:31:40.024Z,38.00
2017-11-06T17:34:08.322Z,42.60
2017-11-06T17:36:38.132Z,34.47
2017-11-06T17:39:06.485Z,29.93
2017-11-06T17:41:35.526Z,35.53
2017-11-06T17:44:03.822Z,43.93
2017-11-06T17:46:33.384Z,36.33
2017-11-06T17:49:01.662Z,29.67
2017-11-06T17:51:29.893Z,40.00
2017-11-06T17:53:58.788Z,45.90
2017-11-06T17:56:27.045Z,47.00
2017-11-06T17:58:55.610Z,53.10
2017-11-06T18:01:23.946Z,48.80
2017-11-06T18:03:54.392Z,40.07
2017-11-06T18:06:24.046Z,41.17
2017-11-06T18:08:52.296Z,42.47
2017-11-06T18:11:20.578Z,42.47
2017-11-06T18:13:48.898Z,40.77
2017-11-06T18:16:17.122Z,38.20
2017-11-06T18:18:45.435Z,45.03
2017-11-06T18:21:14.669Z,41.17
2017-11-06T18:23:42.960Z,50.13
2017-11-06T18:26:11.245Z,28.43
2017-11-06T18:28:39.921Z,37.13
2017-11-06T18:31:08.191Z,31.80
2017-11-06T18:33:36.455Z,30.33
2017-11-06T18:36:05.582Z,32.53
2017-11-06T18:38:33.878Z,29.63
2017-11-06T18:41:02.170Z,28.57
2017-11-06T18:43:30.467Z,25.63
2017-11-06T18:45:59.767Z,45.27
2017-11-06T18:48:28.226Z,43.20
2017-11-06T18:50:56.571Z,78.97
2017-11-06T18:53:24.986Z,56.10
2017-11-06T18:55:53.505Z,31.83
2017-11-06T18:58:21.806Z,35.70
2017-11-06T19:00:50.149Z,32.00
2017-11-06T19:03:18.526Z,46.50
2017-11-06T19:05:47.674Z,28.00
2017-11-06T19:08:16.296Z,52.53
2017-11-06T19:10:46.026Z,47.33
2017-11-06T19:13:14.380Z,41.57
2017-11-06T19:15:43.462Z,36.43
2017-11-06T19:18:11.815Z,28.20
2017-11-06T19:20:41.338Z,48.40
2017-11-06T19:23:09.586Z,49.10
2017-11-06T19:25:40.319Z,26.80
2017-11-06T19:28:09.579Z,57.97
2017-11-06T19:30:39.379Z,54.83
2017-11-06T19:33:09.929Z,37.83
2017-11-06T19:49:30.526Z,62.20
2017-11-06T19:51:58.890Z,47.53
2017-11-06T19:54:27.372Z,47.87
2017-11-06T19:57:00.556Z,55.07
2017-11-06T19:59:29.637Z,46.90
2017-11-06T20:01:59.393Z,55.53
2017-11-06T20:04:27.980Z,54.63
2017-11-06T20:06:59.059Z,63.27
2017-11-06T20:09:28.446Z,68.47
2017-11-06T20:11:58.340Z,73.10
2017-11-06T20:14:35.232Z,58.33
2017-11-06T21:12:41.615Z,50.83
2017-11-06T21:15:09.900Z,37.27
2017-11-06T21:17:38.239Z,40.67
2017-11-06T21:20:06.608Z,53.47
2017-11-06T21:22:35.820Z,43.63
2017-11-06T21:25:04.919Z,35.60
2017-11-06T21:27:34.000Z,30.70
2017-11-06T21:30:07.853Z,57.40
2017-11-06T21:32:36.675Z,52.80
2017-11-06T21:35:05.024Z,55.93
2017-11-06T21:37:33.486Z,33.73
2017-11-06T21:40:02.473Z,26.93
2017-11-06T21:42:31.000Z,38.70
2017-11-06T21:44:59.297Z,40.43
2017-11-06T21:47:27.603Z,52.47
2017-11-06T21:49:55.880Z,30.47
2017-11-06T21:52:24.965Z,53.90
2017-11-06T21:54:54.467Z,38.73
2017-11-06T21:57:23.890Z,26.80
2017-11-06T21:59:52.247Z,35.23
2017-11-06T22:02:21.377Z,44.60
2017-11-06T22:04:49.753Z,40.10
2017-11-06T22:07:19.118Z,33.87
2017-11-06T22:09:48.825Z,34.23
2017-11-06T22:12:17.092Z,24.50
2017-11-06T22:14:45.372Z,33.07
2017-11-06T22:17:13.656Z,28.60
2017-11-06T22:19:42.823Z,30.83
2017-11-06T22:22:11.078Z,35.33
2017-11-06T22:24:39.354Z,46.27
2017-11-06T22:27:08.865Z,38.10
2017-11-06T22:29:37.130Z,34.80
2017-11-06T22:32:05.698Z,35.47
2017-11-06T22:34:34.445Z,36.90
2017-11-06T22:37:04.163Z,42.60
2017-11-06T22:39:34.677Z,26.03
2017-11-06T22:42:02.967Z,29.67
2017-11-06T22:44:32.053Z,26.10
2017-11-06T22:47:01.159Z,52.07
2017-11-06T22:49:31.160Z,46.30
2017-11-06T22:51:59.461Z,49.93
2017-11-06T22:54:28.537Z,52.10
2017-11-06T22:56:56.871Z,50.07
2017-11-06T22:59:25.218Z,52.53
2017-11-06T23:01:53.555Z,52.47
2017-11-06T23:04:23.056Z,58.33
2017-11-06T23:06:51.642Z,36.33
2017-11-06T23:09:19.960Z,40.60
2017-11-06T23:11:48.251Z,35.87
2017-11-06T23:14:16.542Z,29.60
2017-11-06T23:16:44.843Z,35.30
2017-11-06T23:19:13.111Z,44.00
2017-11-06T23:21:41.357Z,32.50
2017-11-06T23:24:09.684Z,40.50
2017-11-06T23:26:37.951Z,30.73
2017-11-06T23:29:06.220Z,47.20
2017-11-06T23:31:35.340Z,34.53
2017-11-06T23:34:03.766Z,34.43
2017-11-06T23:36:32.050Z,35.97
2017-11-06T23:39:00.393Z,56.63
2017-11-06T23:41:28.907Z,38.13
2017-11-06T23:43:57.162Z,50.33
2017-11-06T23:46:25.470Z,34.03
2017-11-06T23:48:53.809Z,39.23
2017-11-06T23:51:22.073Z,42.43
2017-11-06T23:53:50.328Z,35.50
2017-11-06T23:56:18.702Z,35.53
2017-11-06T23:58:47.020Z,36.83
